sensor_id;sensor_type;location;lat;lon;timestamp;P1;durP1;ratioP1;P2;durP2;ratioP2
32347;SDS011;18821;44.800;10.326;2023-05-10T00:00:54;14.15;;;9.68;;
32347;SDS011;18821;44.800;10.326;2023-05-10T00:03:19;14.85;;;11.02;;
32347;SDS011;18821;44.800;10.326;2023-05-10T00:05:45;16.70;;;10.77;;
32347;SDS011;18821;44.800;10.326;2023-05-10T00:08:11;15.35;;;10.32;;
32347;SDS011;18821;44.800;10.326;2023-05-10T00:10:37;17.75;;;10.57;;
32347;SDS011;18821;44.800;10.326;2023-05-10T00:13:03;17.98;;;11.20;;
32347;SDS011;18821;44.800;10.326;2023-05-10T00:15:29;12.82;;;9.52;;
32347;SDS011;18821;44.800;10.326;2023-05-10T00:17:59;10.52;;;7.85;;
32347;SDS011;18821;44.800;10.326;2023-05-10T00:20:25;15.55;;;9.82;;
32347;SDS011;18821;44.800;10.326;2023-05-10T00:22:51;14.60;;;10.43;;
32347;SDS011;18821;44.800;10.326;2023-05-10T00:25:17;18.58;;;11.07;;
32347;SDS011;18821;44.800;10.326;2023-05-10T00:27:43;17.73;;;11.50;;
32347;SDS011;18821;44.800;10.326;2023-05-10T00:30:10;23.38;;;13.55;;
32347;SDS011;18821;44.800;10.326;2023-05-10T00:32:36;21.27;;;13.27;;
32347;SDS011;18821;44.800;10.326;2023-05-10T00:35:02;19.13;;;14.05;;
32347;SDS011;18821;44.800;10.326;2023-05-10T00:37:27;22.00;;;13.55;;
32347;SDS011;18821;44.800;10.326;2023-05-10T00:39:54;21.25;;;14.32;;
32347;SDS011;18821;44.800;10.326;2023-05-10T00:42:19;20.63;;;15.02;;
32347;SDS011;18821;44.800;10.326;2023-05-10T00:44:45;23.42;;;15.93;;
32347;SDS011;18821;44.800;10.326;2023-05-10T00:47:12;23.05;;;15.57;;
32347;SDS011;18821;44.800;10.326;2023-05-10T00:49:38;22.75;;;16.42;;
32347;SDS011;18821;44.800;10.326;2023-05-10T00:52:04;25.67;;;17.10;;
32347;SDS011;18821;44.800;10.326;2023-05-10T00:54:31;24.63;;;15.05;;
32347;SDS011;18821;44.800;10.326;2023-05-10T00:56:57;24.33;;;16.02;;
32347;SDS011;18821;44.800;10.326;2023-05-10T00:59:23;23.42;;;15.52;;
32347;SDS011;18821;44.800;10.326;2023-05-10T01:01:50;22.40;;;15.85;;
32347;SDS011;18821;44.800;10.326;2023-05-10T01:04:17;26.60;;;17.05;;
32347;SDS011;18821;44.800;10.326;2023-05-10T01:06:45;23.05;;;16.38;;
32347;SDS011;18821;44.800;10.326;2023-05-10T01:09:11;25.65;;;17.05;;
32347;SDS011;18821;44.800;10.326;2023-05-10T01:11:38;22.23;;;16.05;;
32347;SDS011;18821;44.800;10.326;2023-05-10T01:14:04;25.88;;;17.55;;
32347;SDS011;18821;44.800;10.326;2023-05-10T01:16:38;22.70;;;14.82;;
32347;SDS011;18821;44.800;10.326;2023-05-10T01:19:06;26.63;;;17.75;;
32347;SDS011;18821;44.800;10.326;2023-05-10T01:27:13;25.98;;;16.33;;
32347;SDS011;18821;44.800;10.326;2023-05-10T01:35:17;22.10;;;15.60;;
32347;SDS011;18821;44.800;10.326;2023-05-10T01:37:52;22.92;;;15.55;;
32347;SDS011;18821;44.800;10.326;2023-05-10T01:43:33;23.88;;;16.85;;
32347;SDS011;18821;44.800;10.326;2023-05-10T01:46:09;22.80;;;15.88;;
32347;SDS011;18821;44.800;10.326;2023-05-10T01:48:43;24.23;;;16.30;;
32347;SDS011;18821;44.800;10.326;2023-05-10T01:51:22;23.33;;;15.40;;
32347;SDS011;18821;44.800;10.326;2023-05-10T01:53:50;26.42;;;16.08;;
32347;SDS011;18821;44.800;10.326;2023-05-10T01:56:20;21.15;;;14.98;;
32347;SDS011;18821;44.800;10.326;2023-05-10T01:58:51;22.55;;;15.30;;
32347;SDS011;18821;44.800;10.326;2023-05-10T02:01:18;22.23;;;15.32;;
32347;SDS011;18821;44.800;10.326;2023-05-10T02:03:46;21.55;;;15.13;;
32347;SDS011;18821;44.800;10.326;2023-05-10T02:06:15;22.33;;;15.82;;
32347;SDS011;18821;44.800;10.326;2023-05-10T02:08:43;21.55;;;14.98;;
32347;SDS011;18821;44.800;10.326;2023-05-10T02:11:14;19.05;;;13.57;;
32347;SDS011;18821;44.800;10.326;2023-05-10T02:13:43;18.98;;;13.00;;
32347;SDS011;18821;44.800;10.326;2023-05-10T02:16:10;23.27;;;14.82;;
32347;SDS011;18821;44.800;10.326;2023-05-10T02:18:38;20.52;;;14.15;;
32347;SDS011;18821;44.800;10.326;2023-05-10T02:21:06;19.15;;;13.32;;
32347;SDS011;18821;44.800;10.326;2023-05-10T02:23:36;20.73;;;13.13;;
32347;SDS011;18821;44.800;10.326;2023-05-10T02:26:03;16.80;;;11.85;;
32347;SDS011;18821;44.800;10.326;2023-05-10T02:28:31;17.15;;;12.73;;
32347;SDS011;18821;44.800;10.326;2023-05-10T02:30:58;17.63;;;12.35;;
32347;SDS011;18821;44.800;10.326;2023-05-10T02:33:25;20.75;;;13.13;;
32347;SDS011;18821;44.800;10.326;2023-05-10T02:35:52;19.75;;;13.45;;
32347;SDS011;18821;44.800;10.326;2023-05-10T02:38:20;16.45;;;12.40;;
32347;SDS011;18821;44.800;10.326;2023-05-10T02:40:47;20.73;;;13.48;;
32347;SDS011;18821;44.800;10.326;2023-05-10T02:43:14;19.15;;;12.75;;
32347;SDS011;18821;44.800;10.326;2023-05-10T02:45:42;16.17;;;11.98;;
32347;SDS011;18821;44.800;10.326;2023-05-10T02:48:12;16.13;;;11.98;;
32347;SDS011;18821;44.800;10.326;2023-05-10T02:50:38;17.35;;;11.63;;
32347;SDS011;18821;44.800;10.326;2023-05-10T02:53:18;15.20;;;10.65;;
32347;SDS011;18821;44.800;10.326;2023-05-10T02:55:49;13.95;;;9.73;;
32347;SDS011;18821;44.800;10.326;2023-05-10T02:58:17;17.70;;;10.38;;
32347;SDS011;18821;44.800;10.326;2023-05-10T03:00:44;14.52;;;9.63;;
32347;SDS011;18821;44.800;10.326;2023-05-10T03:03:11;13.43;;;8.80;;
32347;SDS011;18821;44.800;10.326;2023-05-10T03:05:37;13.88;;;9.13;;
32347;SDS011;18821;44.800;10.326;2023-05-10T03:08:03;13.88;;;9.73;;
32347;SDS011;18821;44.800;10.326;2023-05-10T03:10:30;12.18;;;8.52;;
32347;SDS011;18821;44.800;10.326;2023-05-10T03:13:10;13.82;;;9.75;;
32347;SDS011;18821;44.800;10.326;2023-05-10T03:18:37;12.65;;;8.93;;
32347;SDS011;18821;44.800;10.326;2023-05-10T03:21:20;11.30;;;8.48;;
32347;SDS011;18821;44.800;10.326;2023-05-10T03:23:55;14.43;;;8.77;;
32347;SDS011;18821;44.800;10.326;2023-05-10T03:26:28;12.82;;;8.68;;
32347;SDS011;18821;44.800;10.326;2023-05-10T03:29:12;15.48;;;8.75;;
32347;SDS011;18821;44.800;10.326;2023-05-10T03:31:39;14.45;;;9.55;;
32347;SDS011;18821;44.800;10.326;2023-05-10T03:34:05;15.02;;;8.63;;
32347;SDS011;18821;44.800;10.326;2023-05-10T03:36:32;14.05;;;9.25;;
32347;SDS011;18821;44.800;10.326;2023-05-10T03:38:58;11.07;;;8.95;;
32347;SDS011;18821;44.800;10.326;2023-05-10T03:41:25;14.32;;;10.05;;
32347;SDS011;18821;44.800;10.326;2023-05-10T03:43:51;13.68;;;9.70;;
32347;SDS011;18821;44.800;10.326;2023-05-10T03:46:17;12.65;;;8.90;;
32347;SDS011;18821;44.800;10.326;2023-05-10T03:48:44;12.18;;;9.10;;
32347;SDS011;18821;44.800;10.326;2023-05-10T03:51:09;14.30;;;9.40;;
32347;SDS011;18821;44.800;10.326;2023-05-10T03:53:36;12.52;;;9.02;;
32347;SDS011;18821;44.800;10.326;2023-05-10T03:56:02;13.07;;;8.73;;
32347;SDS011;18821;44.800;10.326;2023-05-10T03:58:28;11.45;;;8.73;;
32347;SDS011;18821;44.800;10.326;2023-05-10T04:00:54;11.43;;;8.23;;
32347;SDS011;18821;44.800;10.326;2023-05-10T04:03:20;12.18;;;8.32;;
32347;SDS011;18821;44.800;10.326;2023-05-10T04:05:46;14.73;;;8.90;;
32347;SDS011;18821;44.800;10.326;2023-05-10T04:08:12;12.10;;;8.88;;
32347;SDS011;18821;44.800;10.326;2023-05-10T04:10:38;9.80;;;7.28;;
32347;SDS011;18821;44.800;10.326;2023-05-10T04:13:03;12.85;;;7.80;;
32347;SDS011;18821;44.800;10.326;2023-05-10T04:15:29;12.55;;;7.68;;
32347;SDS011;18821;44.800;10.326;2023-05-10T04:17:55;14.85;;;7.75;;
32347;SDS011;18821;44.800;10.326;2023-05-10T04:20:21;9.45;;;7.25;;
32347;SDS011;18821;44.800;10.326;2023-05-10T04:22:47;8.70;;;7.45;;
32347;SDS011;18821;44.800;10.326;2023-05-10T04:25:13;9.75;;;7.05;;
32347;SDS011;18821;44.800;10.326;2023-05-10T04:27:38;12.18;;;8.75;;
32347;SDS011;18821;44.800;10.326;2023-05-10T04:30:04;10.80;;;7.88;;
32347;SDS011;18821;44.800;10.326;2023-05-10T04:32:32;10.00;;;8.00;;
32347;SDS011;18821;44.800;10.326;2023-05-10T04:34:58;12.10;;;8.70;;
32347;SDS011;18821;44.800;10.326;2023-05-10T04:37:24;10.43;;;7.30;;
32347;SDS011;18821;44.800;10.326;2023-05-10T04:39:50;11.38;;;8.20;;
32347;SDS011;18821;44.800;10.326;2023-05-10T04:42:15;10.02;;;8.00;;
32347;SDS011;18821;44.800;10.326;2023-05-10T04:44:41;10.68;;;8.32;;
32347;SDS011;18821;44.800;10.326;2023-05-10T04:47:07;9.98;;;7.80;;
32347;SDS011;18821;44.800;10.326;2023-05-10T04:49:33;11.07;;;8.15;;
32347;SDS011;18821;44.800;10.326;2023-05-10T04:51:59;10.95;;;8.25;;
32347;SDS011;18821;44.800;10.326;2023-05-10T04:54:25;14.07;;;9.27;;
32347;SDS011;18821;44.800;10.326;2023-05-10T04:56:51;14.30;;;8.93;;
32347;SDS011;18821;44.800;10.326;2023-05-10T04:59:16;10.35;;;8.88;;
32347;SDS011;18821;44.800;10.326;2023-05-10T05:01:42;10.88;;;8.38;;
32347;SDS011;18821;44.800;10.326;2023-05-10T05:04:08;11.85;;;8.43;;
32347;SDS011;18821;44.800;10.326;2023-05-10T05:06:34;12.82;;;8.70;;
32347;SDS011;18821;44.800;10.326;2023-05-10T05:09:00;11.95;;;8.82;;
32347;SDS011;18821;44.800;10.326;2023-05-10T05:11:26;10.02;;;7.63;;
32347;SDS011;18821;44.800;10.326;2023-05-10T05:13:52;9.25;;;7.68;;
32347;SDS011;18821;44.800;10.326;2023-05-10T05:16:18;14.38;;;8.57;;
32347;SDS011;18821;44.800;10.326;2023-05-10T05:18:44;11.35;;;7.47;;
32347;SDS011;18821;44.800;10.326;2023-05-10T05:21:13;9.13;;;7.85;;
32347;SDS011;18821;44.800;10.326;2023-05-10T05:23:40;12.20;;;8.18;;
32347;SDS011;18821;44.800;10.326;2023-05-10T05:26:06;10.27;;;7.30;;
32347;SDS011;18821;44.800;10.326;2023-05-10T05:28:34;12.25;;;8.50;;
32347;SDS011;18821;44.800;10.326;2023-05-10T05:31:05;10.48;;;7.55;;
32347;SDS011;18821;44.800;10.326;2023-05-10T05:33:33;11.43;;;7.90;;
32347;SDS011;18821;44.800;10.326;2023-05-10T05:36:03;10.57;;;7.53;;
32347;SDS011;18821;44.800;10.326;2023-05-10T05:38:30;10.35;;;7.20;;
32347;SDS011;18821;44.800;10.326;2023-05-10T05:40:56;10.68;;;7.70;;
32347;SDS011;18821;44.800;10.326;2023-05-10T05:43:22;10.07;;;7.68;;
32347;SDS011;18821;44.800;10.326;2023-05-10T05:45:48;11.27;;;8.02;;
32347;SDS011;18821;44.800;10.326;2023-05-10T05:48:14;12.10;;;8.07;;
32347;SDS011;18821;44.800;10.326;2023-05-10T05:50:40;11.43;;;7.47;;
32347;SDS011;18821;44.800;10.326;2023-05-10T05:53:06;12.98;;;8.20;;
32347;SDS011;18821;44.800;10.326;2023-05-10T05:55:32;9.93;;;7.38;;
32347;SDS011;18821;44.800;10.326;2023-05-10T05:57:58;8.38;;;7.20;;
32347;SDS011;18821;44.800;10.326;2023-05-10T06:00:23;11.80;;;8.27;;
32347;SDS011;18821;44.800;10.326;2023-05-10T06:02:49;10.35;;;7.70;;
32347;SDS011;18821;44.800;10.326;2023-05-10T06:05:15;10.98;;;8.13;;
32347;SDS011;18821;44.800;10.326;2023-05-10T06:07:41;12.07;;;7.85;;
32347;SDS011;18821;44.800;10.326;2023-05-10T06:10:08;13.82;;;7.47;;
32347;SDS011;18821;44.800;10.326;2023-05-10T06:12:34;10.20;;;7.90;;
32347;SDS011;18821;44.800;10.326;2023-05-10T06:15:01;12.25;;;8.48;;
32347;SDS011;18821;44.800;10.326;2023-05-10T06:17:29;10.38;;;7.88;;
32347;SDS011;18821;44.800;10.326;2023-05-10T06:19:55;10.05;;;7.72;;
32347;SDS011;18821;44.800;10.326;2023-05-10T06:22:21;9.85;;;7.90;;
32347;SDS011;18821;44.800;10.326;2023-05-10T06:24:48;12.65;;;8.80;;
32347;SDS011;18821;44.800;10.326;2023-05-10T06:27:14;11.45;;;7.72;;
32347;SDS011;18821;44.800;10.326;2023-05-10T06:29:40;10.43;;;8.32;;
32347;SDS011;18821;44.800;10.326;2023-05-10T06:32:06;12.65;;;8.68;;
32347;SDS011;18821;44.800;10.326;2023-05-10T06:34:32;12.43;;;8.85;;
32347;SDS011;18821;44.800;10.326;2023-05-10T06:36:58;14.40;;;8.75;;
32347;SDS011;18821;44.800;10.326;2023-05-10T06:39:24;12.63;;;8.77;;
32347;SDS011;18821;44.800;10.326;2023-05-10T06:41:50;11.57;;;8.05;;
32347;SDS011;18821;44.800;10.326;2023-05-10T06:44:18;12.82;;;8.35;;
32347;SDS011;18821;44.800;10.326;2023-05-10T06:46:43;11.30;;;7.55;;
32347;SDS011;18821;44.800;10.326;2023-05-10T06:49:09;11.23;;;8.05;;
32347;SDS011;18821;44.800;10.326;2023-05-10T06:51:35;12.52;;;7.95;;
32347;SDS011;18821;44.800;10.326;2023-05-10T06:54:01;10.40;;;7.55;;
32347;SDS011;18821;44.800;10.326;2023-05-10T06:56:27;10.93;;;7.70;;
32347;SDS011;18821;44.800;10.326;2023-05-10T06:58:53;10.82;;;7.82;;
32347;SDS011;18821;44.800;10.326;2023-05-10T07:01:18;9.35;;;6.95;;
32347;SDS011;18821;44.800;10.326;2023-05-10T07:03:44;9.73;;;7.05;;
32347;SDS011;18821;44.800;10.326;2023-05-10T07:06:10;8.77;;;6.25;;
32347;SDS011;18821;44.800;10.326;2023-05-10T07:08:36;10.15;;;6.35;;
32347;SDS011;18821;44.800;10.326;2023-05-10T07:11:02;10.32;;;6.38;;
32347;SDS011;18821;44.800;10.326;2023-05-10T07:13:33;11.10;;;8.05;;
32347;SDS011;18821;44.800;10.326;2023-05-10T07:15:59;8.63;;;6.28;;
32347;SDS011;18821;44.800;10.326;2023-05-10T07:18:26;12.20;;;6.93;;
32347;SDS011;18821;44.800;10.326;2023-05-10T07:20:52;16.50;;;7.07;;
32347;SDS011;18821;44.800;10.326;2023-05-10T07:23:18;10.00;;;6.90;;
32347;SDS011;18821;44.800;10.326;2023-05-10T07:25:47;10.70;;;6.70;;
32347;SDS011;18821;44.800;10.326;2023-05-10T07:28:14;9.95;;;6.60;;
32347;SDS011;18821;44.800;10.326;2023-05-10T07:30:41;9.57;;;7.30;;
32347;SDS011;18821;44.800;10.326;2023-05-10T07:33:08;11.63;;;7.10;;
32347;SDS011;18821;44.800;10.326;2023-05-10T07:35:34;10.93;;;6.85;;
32347;SDS011;18821;44.800;10.326;2023-05-10T07:38:00;15.75;;;7.53;;
32347;SDS011;18821;44.800;10.326;2023-05-10T07:40:27;9.50;;;7.20;;
32347;SDS011;18821;44.800;10.326;2023-05-10T07:42:53;11.48;;;7.82;;
32347;SDS011;18821;44.800;10.326;2023-05-10T07:45:20;12.68;;;8.32;;
32347;SDS011;18821;44.800;10.326;2023-05-10T07:47:46;11.10;;;6.90;;
32347;SDS011;18821;44.800;10.326;2023-05-10T07:50:12;11.25;;;7.35;;
32347;SDS011;18821;44.800;10.326;2023-05-10T07:52:38;8.93;;;5.97;;
32347;SDS011;18821;44.800;10.326;2023-05-10T07:55:03;12.60;;;7.45;;
32347;SDS011;18821;44.800;10.326;2023-05-10T07:57:30;10.38;;;7.13;;
32347;SDS011;18821;44.800;10.326;2023-05-10T07:59:56;9.63;;;6.40;;
32347;SDS011;18821;44.800;10.326;2023-05-10T08:02:22;10.93;;;6.32;;
32347;SDS011;18821;44.800;10.326;2023-05-10T08:04:48;10.60;;;6.68;;
32347;SDS011;18821;44.800;10.326;2023-05-10T08:07:14;10.10;;;6.40;;
32347;SDS011;18821;44.800;10.326;2023-05-10T08:09:39;10.60;;;7.07;;
32347;SDS011;18821;44.800;10.326;2023-05-10T08:12:05;9.98;;;5.95;;
32347;SDS011;18821;44.800;10.326;2023-05-10T08:14:31;12.38;;;7.70;;
32347;SDS011;18821;44.800;10.326;2023-05-10T08:16:57;13.27;;;6.55;;
32347;SDS011;18821;44.800;10.326;2023-05-10T08:19:23;8.57;;;6.82;;
32347;SDS011;18821;44.800;10.326;2023-05-10T08:21:49;12.25;;;7.80;;
32347;SDS011;18821;44.800;10.326;2023-05-10T08:24:15;17.45;;;9.02;;
32347;SDS011;18821;44.800;10.326;2023-05-10T08:26:41;11.05;;;7.57;;
32347;SDS011;18821;44.800;10.326;2023-05-10T08:29:06;10.85;;;7.35;;
32347;SDS011;18821;44.800;10.326;2023-05-10T08:31:32;11.32;;;7.32;;
32347;SDS011;18821;44.800;10.326;2023-05-10T08:33:58;12.20;;;8.18;;
32347;SDS011;18821;44.800;10.326;2023-05-10T08:36:24;10.68;;;7.38;;
32347;SDS011;18821;44.800;10.326;2023-05-10T08:38:50;9.63;;;7.32;;
32347;SDS011;18821;44.800;10.326;2023-05-10T08:41:18;11.25;;;4.90;;
32347;SDS011;18821;44.800;10.326;2023-05-10T08:43:46;10.52;;;7.60;;
32347;SDS011;18821;44.800;10.326;2023-05-10T08:46:16;8.63;;;4.97;;
32347;SDS011;18821;44.800;10.326;2023-05-10T08:48:47;15.02;;;7.93;;
32347;SDS011;18821;44.800;10.326;2023-05-10T08:51:15;12.98;;;7.32;;
32347;SDS011;18821;44.800;10.326;2023-05-10T08:53:44;11.40;;;6.32;;
32347;SDS011;18821;44.800;10.326;2023-05-10T08:56:10;11.63;;;6.95;;
32347;SDS011;18821;44.800;10.326;2023-05-10T08:58:37;10.95;;;7.70;;
32347;SDS011;18821;44.800;10.326;2023-05-10T09:01:03;15.52;;;7.70;;
32347;SDS011;18821;44.800;10.326;2023-05-10T09:03:30;10.52;;;8.40;;
32347;SDS011;18821;44.800;10.326;2023-05-10T09:05:57;8.85;;;6.63;;
32347;SDS011;18821;44.800;10.326;2023-05-10T09:08:24;9.88;;;6.72;;
32347;SDS011;18821;44.800;10.326;2023-05-10T09:10:51;10.45;;;8.23;;
32347;SDS011;18821;44.800;10.326;2023-05-10T09:13:17;11.93;;;8.55;;
32347;SDS011;18821;44.800;10.326;2023-05-10T09:15:47;11.02;;;7.22;;
32347;SDS011;18821;44.800;10.326;2023-05-10T09:18:14;8.68;;;6.25;;
32347;SDS011;18821;44.800;10.326;2023-05-10T09:20:40;9.48;;;6.40;;
32347;SDS011;18821;44.800;10.326;2023-05-10T09:23:06;11.15;;;7.22;;
32347;SDS011;18821;44.800;10.326;2023-05-10T09:25:32;10.48;;;6.97;;
32347;SDS011;18821;44.800;10.326;2023-05-10T09:27:59;10.68;;;6.70;;
32347;SDS011;18821;44.800;10.326;2023-05-10T09:30:26;9.27;;;6.72;;
32347;SDS011;18821;44.800;10.326;2023-05-10T09:32:56;9.50;;;6.55;;
32347;SDS011;18821;44.800;10.326;2023-05-10T09:35:24;9.85;;;7.10;;
32347;SDS011;18821;44.800;10.326;2023-05-10T09:37:57;8.48;;;6.20;;
32347;SDS011;18821;44.800;10.326;2023-05-10T09:40:25;9.38;;;6.25;;
32347;SDS011;18821;44.800;10.326;2023-05-10T09:42:56;9.40;;;5.97;;
32347;SDS011;18821;44.800;10.326;2023-05-10T09:45:27;12.25;;;6.47;;
32347;SDS011;18821;44.800;10.326;2023-05-10T09:47:55;7.57;;;5.60;;
32347;SDS011;18821;44.800;10.326;2023-05-10T09:50:22;10.50;;;6.07;;
32347;SDS011;18821;44.800;10.326;2023-05-10T09:52:49;11.57;;;6.30;;
32347;SDS011;18821;44.800;10.326;2023-05-10T09:55:23;7.57;;;5.88;;
32347;SDS011;18821;44.800;10.326;2023-05-10T09:57:58;7.93;;;6.05;;
32347;SDS011;18821;44.800;10.326;2023-05-10T10:00:25;9.85;;;5.90;;
32347;SDS011;18821;44.800;10.326;2023-05-10T10:02:59;9.82;;;6.28;;
32347;SDS011;18821;44.800;10.326;2023-05-10T10:05:32;6.57;;;4.95;;
32347;SDS011;18821;44.800;10.326;2023-05-10T10:08:00;7.68;;;5.40;;
32347;SDS011;18821;44.800;10.326;2023-05-10T10:10:28;7.68;;;4.65;;
32347;SDS011;18821;44.800;10.326;2023-05-10T10:12:56;8.00;;;5.38;;
32347;SDS011;18821;44.800;10.326;2023-05-10T10:15:22;9.05;;;5.78;;
32347;SDS011;18821;44.800;10.326;2023-05-10T10:17:48;6.10;;;4.70;;
32347;SDS011;18821;44.800;10.326;2023-05-10T10:20:15;9.93;;;5.88;;
32347;SDS011;18821;44.800;10.326;2023-05-10T10:22:42;7.93;;;5.68;;
32347;SDS011;18821;44.800;10.326;2023-05-10T10:25:14;9.20;;;5.45;;
32347;SDS011;18821;44.800;10.326;2023-05-10T10:27:47;10.35;;;5.97;;
32347;SDS011;18821;44.800;10.326;2023-05-10T10:35:34;6.78;;;4.72;;
32347;SDS011;18821;44.800;10.326;2023-05-10T10:38:01;8.70;;;5.18;;
32347;SDS011;18821;44.800;10.326;2023-05-10T10:40:27;9.57;;;5.60;;
32347;SDS011;18821;44.800;10.326;2023-05-10T10:42:55;8.48;;;5.97;;
32347;SDS011;18821;44.800;10.326;2023-05-10T10:45:22;7.43;;;5.18;;
32347;SDS011;18821;44.800;10.326;2023-05-10T10:47:53;10.45;;;5.82;;
32347;SDS011;18821;44.800;10.326;2023-05-10T10:50:45;8.93;;;5.30;;
32347;SDS011;18821;44.800;10.326;2023-05-10T10:53:12;12.15;;;5.18;;
32347;SDS011;18821;44.800;10.326;2023-05-10T10:55:47;8.18;;;5.35;;
32347;SDS011;18821;44.800;10.326;2023-05-10T10:58:29;8.27;;;5.50;;
32347;SDS011;18821;44.800;10.326;2023-05-10T11:01:11;9.48;;;4.93;;
32347;SDS011;18821;44.800;10.326;2023-05-10T11:03:54;7.35;;;5.57;;
32347;SDS011;18821;44.800;10.326;2023-05-10T11:06:30;7.80;;;4.85;;
32347;SDS011;18821;44.800;10.326;2023-05-10T11:09:07;8.30;;;5.60;;
32347;SDS011;18821;44.800;10.326;2023-05-10T11:11:34;8.15;;;5.63;;
32347;SDS011;18821;44.800;10.326;2023-05-10T11:14:04;10.88;;;7.70;;
32347;SDS011;18821;44.800;10.326;2023-05-10T11:16:42;10.10;;;5.57;;
32347;SDS011;18821;44.800;10.326;2023-05-10T11:19:10;6.18;;;4.90;;
32347;SDS011;18821;44.800;10.326;2023-05-10T11:21:50;5.47;;;4.80;;
32347;SDS011;18821;44.800;10.326;2023-05-10T11:24:31;7.93;;;5.28;;
32347;SDS011;18821;44.800;10.326;2023-05-10T11:26:56;7.03;;;4.78;;
32347;SDS011;18821;44.800;10.326;2023-05-10T11:29:23;7.13;;;5.63;;
32347;SDS011;18821;44.800;10.326;2023-05-10T11:31:51;9.10;;;5.60;;
32347;SDS011;18821;44.800;10.326;2023-05-10T11:34:30;9.13;;;7.22;;
32347;SDS011;18821;44.800;10.326;2023-05-10T11:36:58;10.45;;;5.95;;
32347;SDS011;18821;44.800;10.326;2023-05-10T11:39:26;10.82;;;7.13;;
32347;SDS011;18821;44.800;10.326;2023-05-10T11:41:56;7.22;;;5.75;;
32347;SDS011;18821;44.800;10.326;2023-05-10T11:44:23;24.13;;;14.13;;
32347;SDS011;18821;44.800;10.326;2023-05-10T11:47:00;8.18;;;6.40;;
32347;SDS011;18821;44.800;10.326;2023-05-10T11:49:26;13.77;;;6.10;;
32347;SDS011;18821;44.800;10.326;2023-05-10T11:51:52;6.78;;;5.68;;
32347;SDS011;18821;44.800;10.326;2023-05-10T11:54:18;8.70;;;5.75;;
32347;SDS011;18821;44.800;10.326;2023-05-10T11:56:44;9.85;;;6.82;;
32347;SDS011;18821;44.800;10.326;2023-05-10T11:59:10;7.65;;;5.97;;
32347;SDS011;18821;44.800;10.326;2023-05-10T12:01:39;7.95;;;5.40;;
32347;SDS011;18821;44.800;10.326;2023-05-10T12:04:05;8.45;;;6.20;;
32347;SDS011;18821;44.800;10.326;2023-05-10T12:06:32;7.47;;;5.68;;
32347;SDS011;18821;44.800;10.326;2023-05-10T12:09:05;10.48;;;5.50;;
32347;SDS011;18821;44.800;10.326;2023-05-10T12:11:35;7.35;;;5.20;;
32347;SDS011;18821;44.800;10.326;2023-05-10T12:14:04;7.05;;;5.07;;
32347;SDS011;18821;44.800;10.326;2023-05-10T12:16:30;10.70;;;5.72;;
32347;SDS011;18821;44.800;10.326;2023-05-10T12:18:57;8.95;;;6.15;;
32347;SDS011;18821;44.800;10.326;2023-05-10T12:21:24;7.13;;;5.35;;
32347;SDS011;18821;44.800;10.326;2023-05-10T12:23:58;7.80;;;5.38;;
32347;SDS011;18821;44.800;10.326;2023-05-10T12:26:25;7.82;;;5.82;;
32347;SDS011;18821;44.800;10.326;2023-05-10T12:28:53;8.73;;;5.80;;
32347;SDS011;18821;44.800;10.326;2023-05-10T12:31:20;9.43;;;5.13;;
32347;SDS011;18821;44.800;10.326;2023-05-10T12:33:45;15.30;;;9.98;;
32347;SDS011;18821;44.800;10.326;2023-05-10T12:36:13;8.15;;;6.68;;
32347;SDS011;18821;44.800;10.326;2023-05-10T12:38:46;7.65;;;5.53;;
32347;SDS011;18821;44.800;10.326;2023-05-10T12:41:15;11.23;;;7.60;;
32347;SDS011;18821;44.800;10.326;2023-05-10T12:43:43;8.50;;;6.40;;
32347;SDS011;18821;44.800;10.326;2023-05-10T12:48:37;7.88;;;5.47;;
32347;SDS011;18821;44.800;10.326;2023-05-10T12:51:04;10.02;;;5.68;;
32347;SDS011;18821;44.800;10.326;2023-05-10T12:53:30;6.97;;;5.07;;
32347;SDS011;18821;44.800;10.326;2023-05-10T12:55:56;8.50;;;5.68;;
32347;SDS011;18821;44.800;10.326;2023-05-10T12:58:22;6.93;;;5.18;;
32347;SDS011;18821;44.800;10.326;2023-05-10T13:00:48;8.77;;;5.93;;
32347;SDS011;18821;44.800;10.326;2023-05-10T13:03:16;11.32;;;7.43;;
32347;SDS011;18821;44.800;10.326;2023-05-10T13:05:42;5.95;;;5.00;;
32347;SDS011;18821;44.800;10.326;2023-05-10T13:08:08;9.63;;;5.65;;
32347;SDS011;18821;44.800;10.326;2023-05-10T13:10:34;7.38;;;5.38;;
32347;SDS011;18821;44.800;10.326;2023-05-10T13:13:00;9.25;;;5.88;;
32347;SDS011;18821;44.800;10.326;2023-05-10T13:15:26;8.23;;;5.97;;
32347;SDS011;18821;44.800;10.326;2023-05-10T13:17:52;8.57;;;5.47;;
32347;SDS011;18821;44.800;10.326;2023-05-10T13:20:19;7.05;;;5.80;;
32347;SDS011;18821;44.800;10.326;2023-05-10T13:22:45;7.00;;;5.45;;
32347;SDS011;18821;44.800;10.326;2023-05-10T13:25:11;9.18;;;6.13;;
32347;SDS011;18821;44.800;10.326;2023-05-10T13:27:38;7.53;;;4.95;;
32347;SDS011;18821;44.800;10.326;2023-05-10T13:30:06;6.43;;;5.32;;
32347;SDS011;18821;44.800;10.326;2023-05-10T13:32:33;8.40;;;6.22;;
32347;SDS011;18821;44.800;10.326;2023-05-10T13:34:59;7.53;;;5.97;;
32347;SDS011;18821;44.800;10.326;2023-05-10T13:37:25;6.25;;;4.50;;
32347;SDS011;18821;44.800;10.326;2023-05-10T13:39:51;6.57;;;5.03;;
32347;SDS011;18821;44.800;10.326;2023-05-10T13:42:17;14.10;;;8.63;;
32347;SDS011;18821;44.800;10.326;2023-05-10T13:44:43;6.07;;;4.28;;
32347;SDS011;18821;44.800;10.326;2023-05-10T13:47:09;7.60;;;5.10;;
32347;SDS011;18821;44.800;10.326;2023-05-10T13:49:35;6.10;;;4.85;;
32347;SDS011;18821;44.800;10.326;2023-05-10T13:52:01;6.22;;;3.88;;
32347;SDS011;18821;44.800;10.326;2023-05-10T13:54:35;6.05;;;4.18;;
32347;SDS011;18821;44.800;10.326;2023-05-10T13:57:02;5.90;;;4.35;;
32347;SDS011;18821;44.800;10.326;2023-05-10T13:59:28;8.55;;;5.00;;
32347;SDS011;18821;44.800;10.326;2023-05-10T14:01:56;6.47;;;4.35;;
32347;SDS011;18821;44.800;10.326;2023-05-10T14:04:23;6.72;;;4.57;;
32347;SDS011;18821;44.800;10.326;2023-05-10T14:06:49;9.82;;;5.05;;
32347;SDS011;18821;44.800;10.326;2023-05-10T14:09:15;10.40;;;4.80;;
32347;SDS011;18821;44.800;10.326;2023-05-10T14:11:41;7.22;;;4.47;;
32347;SDS011;18821;44.800;10.326;2023-05-10T14:14:08;6.97;;;5.22;;
32347;SDS011;18821;44.800;10.326;2023-05-10T14:16:34;8.07;;;5.47;;
32347;SDS011;18821;44.800;10.326;2023-05-10T14:19:00;6.10;;;5.20;;
32347;SDS011;18821;44.800;10.326;2023-05-10T14:21:27;7.35;;;5.82;;
32347;SDS011;18821;44.800;10.326;2023-05-10T14:23:55;8.43;;;5.28;;
32347;SDS011;18821;44.800;10.326;2023-05-10T14:26:20;7.38;;;6.20;;
32347;SDS011;18821;44.800;10.326;2023-05-10T14:28:47;6.95;;;5.45;;
32347;SDS011;18821;44.800;10.326;2023-05-10T14:31:13;7.35;;;6.03;;
32347;SDS011;18821;44.800;10.326;2023-05-10T14:33:39;7.95;;;4.88;;
32347;SDS011;18821;44.800;10.326;2023-05-10T14:36:06;11.63;;;5.25;;
32347;SDS011;18821;44.800;10.326;2023-05-10T14:38:32;7.65;;;5.43;;
32347;SDS011;18821;44.800;10.326;2023-05-10T14:40:58;8.40;;;5.68;;
32347;SDS011;18821;44.800;10.326;2023-05-10T14:43:24;8.00;;;5.82;;
32347;SDS011;18821;44.800;10.326;2023-05-10T14:45:50;6.30;;;4.95;;
32347;SDS011;18821;44.800;10.326;2023-05-10T14:48:16;11.93;;;5.50;;
32347;SDS011;18821;44.800;10.326;2023-05-10T14:50:43;7.10;;;5.13;;